Weather at DoubleTree San Diego Downtown Helipad

Public forecast

Using degrees Fahrenheit for public forecast. Weather courtesy of forecast.io.

Closest aviation weather report (METAR) to DoubleTree San Diego Downtown Helipad

Closest report is San Diego International Airport, 1.4 nm (2.6 km) WNW.

2024/07/19 04:51 (retrieved 35 minutes ago)

KSAN 190451Z 31003KT 10SM FEW014 20/16 A3000 RMK AO2 SLP158 T02000161

Closest aviation forecast (TAF) to DoubleTree San Diego Downtown Helipad

Forecast is more than 6 hours old.

Closest forecast is Miramar Marine Corps Air Station - Mitscher Field, 8.8 nm (16.4 km) N.

2024/07/18 21:07 Ammendment (retrieved 8 hours ago)

TAF AMD KNKX 1821/1921 25009KT 9999 FEW010 FEW050CB QNH2998INS BECMG 1902/1904 VRB03KT 8000 BR BKN010 QNH2996INS FM191430 VRB03KT 9000 BR SCT010 QNH2998INS FM191600 32005KT 9999 NSW SCT012 QNH2998INS T26/1822Z T18/1913Z